DLH46P LOWS-EDDF
Flight info
| Callsign | DLH46P |
|---|---|
| Flight time | 0h 44m |
| Altitude | 30000 |
| Route | INROM DCT SIMBA Y700 NENUM T161 DEBHI DEBHI1B |
| Aircraft | A320/M-SDE2E3FGIJ1LORWXYZ/HB1 |
Departure
| Time | 2026-05-05 13:16 |
|---|---|
| Airport | Salzburg Airport (LOWS) |
Arrival
| Time | 2026-05-05 14:00 |
|---|---|
| Airport | Frankfurt Main Airport (EDDF) |
| Time | Latitude | Longitude | Altitude | Speed | Heading |
|---|---|---|---|---|---|
| 2026-05-05 12:42 | 47.79171 | 12.99873 | 1422 ft | 0 kts | 282° |
| 2026-05-05 13:08 | 47.79168 | 12.99895 | 1422 ft | 4 kts | 282° |
| 2026-05-05 13:08 | 47.79162 | 12.99935 | 1422 ft | 4 kts | 281° |
| 2026-05-05 13:08 | 47.79157 | 12.99974 | 1422 ft | 4 kts | 275° |
| 2026-05-05 13:08 | 47.79158 | 13.00011 | 1422 ft | 4 kts | 237° |
| 2026-05-05 13:09 | 47.79163 | 13.00022 | 1422 ft | 0 kts | 157° |
| 2026-05-05 13:11 | 47.79135 | 13.00041 | 1422 ft | 6 kts | 157° |
| 2026-05-05 13:12 | 47.79086 | 13.00072 | 1422 ft | 6 kts | 156° |
| 2026-05-05 13:12 | 47.79061 | 13.00088 | 1422 ft | 9 kts | 156° |
| 2026-05-05 13:12 | 47.78986 | 13.00134 | 1422 ft | 11 kts | 156° |
| 2026-05-05 13:12 | 47.78955 | 13.00246 | 1422 ft | 14 kts | 94° |
| 2026-05-05 13:13 | 47.78922 | 13.00385 | 1420 ft | 17 kts | 149° |
| 2026-05-05 13:13 | 47.78801 | 13.00463 | 1420 ft | 23 kts | 158° |
| 2026-05-05 13:13 | 47.78647 | 13.00560 | 1421 ft | 25 kts | 157° |
| 2026-05-05 13:13 | 47.78483 | 13.00663 | 1421 ft | 27 kts | 157° |
| 2026-05-05 13:14 | 47.78308 | 13.00773 | 1421 ft | 24 kts | 157° |
| 2026-05-05 13:14 | 47.78202 | 13.00873 | 1420 ft | 19 kts | 126° |
| 2026-05-05 13:14 | 47.78197 | 13.01029 | 1417 ft | 4 kts | 62° |
| 2026-05-05 13:14 | 47.78224 | 13.01071 | 1417 ft | 7 kts | 32° |
| 2026-05-05 13:15 | 47.78294 | 13.01052 | 1417 ft | 18 kts | 337° |
| 2026-05-05 13:15 | 47.78619 | 13.00848 | 1421 ft | 88 kts | 337° |
| 2026-05-05 13:15 | 47.79388 | 13.00362 | 1427 ft | 148 kts | 337° |
| 2026-05-05 13:15 | 47.80399 | 12.99723 | 1963 ft | 160 kts | 338° |
| 2026-05-05 13:16 | 47.81432 | 12.99103 | 2756 ft | 163 kts | 345° |
| 2026-05-05 13:16 | 47.82632 | 12.99070 | 3163 ft | 185 kts | 15° |
| 2026-05-05 13:16 | 47.83809 | 13.00068 | 3570 ft | 207 kts | 36° |
| 2026-05-05 13:16 | 47.85004 | 13.01396 | 4005 ft | 226 kts | 36° |
| 2026-05-05 13:17 | 47.86333 | 13.02859 | 4504 ft | 250 kts | 36° |
| 2026-05-05 13:17 | 47.87802 | 13.04446 | 5171 ft | 269 kts | 34° |
| 2026-05-05 13:17 | 47.89518 | 13.05620 | 6079 ft | 278 kts | 12° |
| 2026-05-05 13:17 | 47.91466 | 13.05714 | 6954 ft | 285 kts | 353° |
| 2026-05-05 13:18 | 47.93456 | 13.05390 | 7888 ft | 290 kts | 352° |
| 2026-05-05 13:18 | 47.95478 | 13.05040 | 8816 ft | 296 kts | 352° |
| 2026-05-05 13:18 | 47.97541 | 13.04675 | 9748 ft | 301 kts | 352° |
| 2026-05-05 13:18 | 47.99658 | 13.04297 | 10421 ft | 316 kts | 351° |
| 2026-05-05 13:19 | 48.01913 | 13.03894 | 10866 ft | 336 kts | 352° |
| 2026-05-05 13:19 | 48.04262 | 13.03481 | 11647 ft | 343 kts | 352° |
| 2026-05-05 13:19 | 48.06650 | 13.03066 | 12494 ft | 348 kts | 352° |
| 2026-05-05 13:19 | 48.09068 | 13.02647 | 13341 ft | 352 kts | 352° |
| 2026-05-05 13:20 | 48.11516 | 13.02218 | 14101 ft | 356 kts | 352° |
| 2026-05-05 13:20 | 48.13995 | 13.01788 | 14818 ft | 361 kts | 352° |
| 2026-05-05 13:20 | 48.16506 | 13.01354 | 15516 ft | 366 kts | 352° |
| 2026-05-05 13:20 | 48.19053 | 13.00911 | 16204 ft | 371 kts | 352° |
| 2026-05-05 13:21 | 48.21630 | 13.00460 | 16897 ft | 375 kts | 352° |
| 2026-05-05 13:21 | 48.24242 | 12.99997 | 17588 ft | 380 kts | 352° |
| 2026-05-05 13:21 | 48.26887 | 12.99529 | 18247 ft | 385 kts | 352° |
| 2026-05-05 13:21 | 48.29562 | 12.99060 | 18850 ft | 389 kts | 352° |
| 2026-05-05 13:22 | 48.32265 | 12.98591 | 19473 ft | 393 kts | 352° |
| 2026-05-05 13:22 | 48.34990 | 12.98117 | 20109 ft | 396 kts | 352° |
| 2026-05-05 13:22 | 48.37740 | 12.97631 | 20710 ft | 399 kts | 352° |
| 2026-05-05 13:22 | 48.40513 | 12.97136 | 21300 ft | 403 kts | 352° |
| 2026-05-05 13:23 | 48.43301 | 12.96562 | 21878 ft | 406 kts | 346° |
| 2026-05-05 13:23 | 48.45941 | 12.95090 | 22415 ft | 406 kts | 328° |
| 2026-05-05 13:23 | 48.48167 | 12.92513 | 22958 ft | 404 kts | 310° |
| 2026-05-05 13:23 | 48.49305 | 12.90312 | 23318 ft | 402 kts | 298° |
| 2026-05-05 13:24 | 48.50481 | 12.86510 | 23782 ft | 401 kts | 288° |
| 2026-05-05 13:24 | 48.51503 | 12.82590 | 24276 ft | 403 kts | 288° |
| 2026-05-05 13:24 | 48.52532 | 12.78645 | 24761 ft | 405 kts | 288° |
| 2026-05-05 13:24 | 48.53567 | 12.74681 | 25241 ft | 408 kts | 288° |
| 2026-05-05 13:25 | 48.54611 | 12.70688 | 25728 ft | 410 kts | 288° |
| 2026-05-05 13:25 | 48.55657 | 12.66678 | 26199 ft | 412 kts | 288° |
| 2026-05-05 13:25 | 48.56710 | 12.62641 | 26661 ft | 414 kts | 287° |
| 2026-05-05 13:25 | 48.57768 | 12.58583 | 27119 ft | 417 kts | 287° |
| 2026-05-05 13:26 | 48.58827 | 12.54501 | 27571 ft | 419 kts | 287° |
| 2026-05-05 13:26 | 48.59892 | 12.50389 | 28015 ft | 421 kts | 287° |
| 2026-05-05 13:26 | 48.60963 | 12.46259 | 28437 ft | 424 kts | 287° |
| 2026-05-05 13:26 | 48.62040 | 12.42105 | 28871 ft | 426 kts | 287° |
| 2026-05-05 13:27 | 48.63120 | 12.37925 | 29301 ft | 428 kts | 287° |
| 2026-05-05 13:27 | 48.64206 | 12.33716 | 29737 ft | 430 kts | 287° |
| 2026-05-05 13:27 | 48.65290 | 12.29499 | 30142 ft | 431 kts | 287° |
| 2026-05-05 13:27 | 48.66377 | 12.25261 | 30513 ft | 433 kts | 287° |
| 2026-05-05 13:28 | 48.67467 | 12.21002 | 30728 ft | 434 kts | 287° |
| 2026-05-05 13:28 | 48.68543 | 12.16797 | 30763 ft | 420 kts | 287° |
| 2026-05-05 13:28 | 48.69579 | 12.12764 | 30762 ft | 403 kts | 286° |
| 2026-05-05 13:28 | 48.70582 | 12.08844 | 30763 ft | 396 kts | 286° |
| 2026-05-05 13:29 | 48.72547 | 12.01105 | 30771 ft | 393 kts | 286° |
| 2026-05-05 13:29 | 48.74490 | 11.93384 | 30778 ft | 392 kts | 286° |
| 2026-05-05 13:30 | 48.76429 | 11.85660 | 30789 ft | 392 kts | 286° |
| 2026-05-05 13:30 | 48.78374 | 11.77915 | 30794 ft | 394 kts | 285° |
| 2026-05-05 13:31 | 48.80322 | 11.70152 | 30795 ft | 394 kts | 285° |
| 2026-05-05 13:31 | 48.82256 | 11.62438 | 30771 ft | 394 kts | 285° |
| 2026-05-05 13:32 | 48.84192 | 11.54661 | 30771 ft | 394 kts | 285° |
| 2026-05-05 13:32 | 48.86115 | 11.46879 | 30769 ft | 394 kts | 285° |
| 2026-05-05 13:33 | 48.88041 | 11.39083 | 30775 ft | 394 kts | 285° |
| 2026-05-05 13:33 | 48.89963 | 11.31274 | 30766 ft | 395 kts | 285° |
| 2026-05-05 13:34 | 48.91880 | 11.23439 | 30775 ft | 396 kts | 285° |
| 2026-05-05 13:34 | 48.93795 | 11.15595 | 30775 ft | 396 kts | 285° |
| 2026-05-05 13:35 | 48.95869 | 11.07822 | 30781 ft | 401 kts | 294° |
| 2026-05-05 13:35 | 48.99387 | 11.01125 | 30798 ft | 412 kts | 313° |
| 2026-05-05 13:36 | 49.03173 | 10.94667 | 30796 ft | 408 kts | 304° |
| 2026-05-05 13:36 | 49.06705 | 10.87903 | 30708 ft | 410 kts | 303° |
| 2026-05-05 13:37 | 49.08466 | 10.84498 | 30464 ft | 409 kts | 303° |
| 2026-05-05 13:37 | 49.10230 | 10.81101 | 30237 ft | 408 kts | 303° |
| 2026-05-05 13:37 | 49.11997 | 10.77717 | 29979 ft | 407 kts | 304° |
| 2026-05-05 13:37 | 49.13759 | 10.74347 | 29707 ft | 406 kts | 304° |
| 2026-05-05 13:38 | 49.15476 | 10.71062 | 29433 ft | 404 kts | 304° |
| 2026-05-05 13:38 | 49.17267 | 10.67635 | 29147 ft | 403 kts | 304° |
| 2026-05-05 13:38 | 49.19022 | 10.64301 | 28885 ft | 402 kts | 304° |
| 2026-05-05 13:38 | 49.20777 | 10.60991 | 28604 ft | 400 kts | 304° |
| 2026-05-05 13:39 | 49.22530 | 10.57694 | 28355 ft | 399 kts | 304° |
| 2026-05-05 13:39 | 49.24276 | 10.54406 | 28086 ft | 397 kts | 304° |
| 2026-05-05 13:39 | 49.26007 | 10.51137 | 27817 ft | 392 kts | 304° |
| 2026-05-05 13:39 | 49.27711 | 10.47910 | 27397 ft | 388 kts | 304° |
| 2026-05-05 13:40 | 49.29394 | 10.44712 | 26961 ft | 384 kts | 304° |
| 2026-05-05 13:40 | 49.31062 | 10.41534 | 26539 ft | 381 kts | 304° |
| 2026-05-05 13:40 | 49.32715 | 10.38385 | 26072 ft | 378 kts | 304° |
| 2026-05-05 13:40 | 49.34358 | 10.35254 | 25632 ft | 376 kts | 304° |
| 2026-05-05 13:41 | 49.35994 | 10.32137 | 25173 ft | 374 kts | 304° |
| 2026-05-05 13:41 | 49.37622 | 10.29027 | 24745 ft | 373 kts | 305° |
| 2026-05-05 13:41 | 49.39243 | 10.25924 | 24259 ft | 373 kts | 305° |
| 2026-05-05 13:41 | 49.40862 | 10.22814 | 23786 ft | 372 kts | 305° |
| 2026-05-05 13:42 | 49.42559 | 10.19810 | 23341 ft | 373 kts | 313° |
| 2026-05-05 13:42 | 49.44430 | 10.17064 | 22901 ft | 371 kts | 314° |
| 2026-05-05 13:42 | 49.46325 | 10.14337 | 22476 ft | 383 kts | 314° |
| 2026-05-05 13:42 | 49.48316 | 10.11457 | 21975 ft | 398 kts | 314° |
| 2026-05-05 13:43 | 49.50338 | 10.08523 | 21501 ft | 400 kts | 314° |
| 2026-05-05 13:43 | 49.52354 | 10.05597 | 21042 ft | 398 kts | 314° |
| 2026-05-05 13:43 | 49.54359 | 10.02686 | 20587 ft | 394 kts | 314° |
| 2026-05-05 13:43 | 49.56320 | 9.99841 | 20142 ft | 391 kts | 314° |
| 2026-05-05 13:44 | 49.58293 | 9.96980 | 19696 ft | 388 kts | 314° |
| 2026-05-05 13:44 | 49.60248 | 9.94140 | 19258 ft | 385 kts | 314° |
| 2026-05-05 13:44 | 49.62159 | 9.91268 | 18910 ft | 382 kts | 313° |
| 2026-05-05 13:44 | 49.64025 | 9.88359 | 18485 ft | 380 kts | 312° |
| 2026-05-05 13:45 | 49.65862 | 9.85443 | 17997 ft | 378 kts | 311° |
| 2026-05-05 13:45 | 49.67687 | 9.82527 | 17393 ft | 378 kts | 311° |
| 2026-05-05 13:45 | 49.69511 | 9.79611 | 16814 ft | 377 kts | 312° |
| 2026-05-05 13:45 | 49.71337 | 9.76698 | 16246 ft | 377 kts | 312° |
| 2026-05-05 13:46 | 49.73164 | 9.73795 | 15702 ft | 377 kts | 312° |
| 2026-05-05 13:46 | 49.74977 | 9.70868 | 15160 ft | 373 kts | 311° |
| 2026-05-05 13:46 | 49.76702 | 9.67977 | 14668 ft | 361 kts | 310° |
| 2026-05-05 13:46 | 49.78378 | 9.65101 | 14183 ft | 359 kts | 310° |
| 2026-05-05 13:47 | 49.80038 | 9.62222 | 13761 ft | 356 kts | 310° |
| 2026-05-05 13:47 | 49.81675 | 9.59378 | 13506 ft | 352 kts | 310° |
| 2026-05-05 13:47 | 49.83301 | 9.56560 | 13250 ft | 350 kts | 310° |
| 2026-05-05 13:47 | 49.84926 | 9.53760 | 12993 ft | 349 kts | 310° |
| 2026-05-05 13:48 | 49.86548 | 9.50972 | 12732 ft | 348 kts | 310° |
| 2026-05-05 13:48 | 49.88165 | 9.48193 | 12471 ft | 345 kts | 310° |
| 2026-05-05 13:48 | 49.89730 | 9.45505 | 12207 ft | 325 kts | 310° |
| 2026-05-05 13:48 | 49.91190 | 9.42993 | 11950 ft | 313 kts | 310° |
| 2026-05-05 13:49 | 49.92634 | 9.40504 | 11699 ft | 308 kts | 310° |
| 2026-05-05 13:49 | 49.94063 | 9.38035 | 11453 ft | 308 kts | 310° |
| 2026-05-05 13:49 | 49.95484 | 9.35579 | 11168 ft | 304 kts | 310° |
| 2026-05-05 13:49 | 49.96895 | 9.33137 | 10776 ft | 303 kts | 310° |
| 2026-05-05 13:50 | 49.98304 | 9.30695 | 10380 ft | 304 kts | 310° |
| 2026-05-05 13:50 | 49.99717 | 9.28245 | 9965 ft | 304 kts | 310° |
| 2026-05-05 13:50 | 50.01128 | 9.25795 | 9615 ft | 302 kts | 310° |
| 2026-05-05 13:50 | 50.02528 | 9.23364 | 9169 ft | 300 kts | 310° |
| 2026-05-05 13:51 | 50.03895 | 9.20988 | 8674 ft | 290 kts | 310° |
| 2026-05-05 13:51 | 50.05212 | 9.18703 | 8269 ft | 278 kts | 310° |
| 2026-05-05 13:51 | 50.06478 | 9.16502 | 7860 ft | 268 kts | 310° |
| 2026-05-05 13:51 | 50.07705 | 9.14364 | 7465 ft | 264 kts | 310° |
| 2026-05-05 13:52 | 50.08927 | 9.12229 | 7060 ft | 264 kts | 310° |
| 2026-05-05 13:52 | 50.10145 | 9.10099 | 6652 ft | 263 kts | 310° |
| 2026-05-05 13:52 | 50.11359 | 9.07974 | 6241 ft | 260 kts | 310° |
| 2026-05-05 13:52 | 50.12519 | 9.05884 | 5817 ft | 249 kts | 304° |
| 2026-05-05 13:53 | 50.13298 | 9.03547 | 5416 ft | 240 kts | 287° |
| 2026-05-05 13:53 | 50.13587 | 9.01030 | 5072 ft | 232 kts | 269° |
| 2026-05-05 13:53 | 50.13408 | 8.98647 | 5006 ft | 211 kts | 253° |
| 2026-05-05 13:53 | 50.12957 | 8.96600 | 4955 ft | 198 kts | 249° |
| 2026-05-05 13:54 | 50.12490 | 8.94595 | 4913 ft | 195 kts | 248° |
| 2026-05-05 13:54 | 50.12027 | 8.92615 | 4829 ft | 194 kts | 248° |
| 2026-05-05 13:54 | 50.11559 | 8.90616 | 4621 ft | 194 kts | 249° |
| 2026-05-05 13:54 | 50.11097 | 8.88651 | 4369 ft | 196 kts | 248° |
| 2026-05-05 13:55 | 50.10635 | 8.86684 | 4128 ft | 191 kts | 249° |
| 2026-05-05 13:55 | 50.10184 | 8.84763 | 3858 ft | 186 kts | 249° |
| 2026-05-05 13:55 | 50.09744 | 8.82893 | 3608 ft | 182 kts | 249° |
| 2026-05-05 13:55 | 50.09312 | 8.81061 | 3378 ft | 179 kts | 249° |
| 2026-05-05 13:56 | 50.08885 | 8.79253 | 3139 ft | 177 kts | 249° |
| 2026-05-05 13:56 | 50.08464 | 8.77469 | 2907 ft | 175 kts | 249° |
| 2026-05-05 13:56 | 50.08049 | 8.75708 | 2682 ft | 169 kts | 249° |
| 2026-05-05 13:56 | 50.07657 | 8.74051 | 2461 ft | 156 kts | 249° |
| 2026-05-05 13:57 | 50.07295 | 8.72521 | 2265 ft | 145 kts | 248° |
| 2026-05-05 13:57 | 50.06957 | 8.71090 | 2094 ft | 137 kts | 249° |
| 2026-05-05 13:57 | 50.06638 | 8.69744 | 1904 ft | 128 kts | 249° |
| 2026-05-05 13:57 | 50.06323 | 8.68413 | 1726 ft | 135 kts | 248° |
| 2026-05-05 13:58 | 50.05995 | 8.67029 | 1596 ft | 135 kts | 247° |
| 2026-05-05 13:58 | 50.05672 | 8.65655 | 1376 ft | 134 kts | 248° |
| 2026-05-05 13:58 | 50.05351 | 8.64303 | 1180 ft | 131 kts | 250° |
| 2026-05-05 13:58 | 50.05042 | 8.62996 | 1008 ft | 128 kts | 250° |
| 2026-05-05 13:59 | 50.04420 | 8.60386 | 650 ft | 129 kts | 249° |
| 2026-05-05 13:59 | 50.04107 | 8.59072 | 467 ft | 130 kts | 249° |
| 2026-05-05 14:00 | 50.03571 | 8.56837 | 354 ft | 68 kts | 249° |
| 2026-05-05 14:00 | 50.03484 | 8.56471 | 356 ft | 41 kts | 249° |
| 2026-05-05 14:00 | 50.03448 | 8.55958 | 354 ft | 27 kts | 280° |
| 2026-05-05 14:00 | 50.03465 | 8.55803 | 352 ft | 10 kts | 279° |
| 2026-05-05 14:01 | 50.03468 | 8.55774 | 351 ft | 1 kts | 280° |
| 2026-05-05 14:01 | 50.03470 | 8.55760 | 344 ft | 4 kts | 280° |
| 2026-05-05 14:01 | 50.03482 | 8.55649 | 349 ft | 15 kts | 279° |
| 2026-05-05 14:01 | 50.03488 | 8.55466 | 351 ft | 19 kts | 258° |
| 2026-05-05 14:02 | 50.03442 | 8.55261 | 348 ft | 21 kts | 250° |
| 2026-05-05 14:02 | 50.03387 | 8.55032 | 351 ft | 24 kts | 250° |
| 2026-05-05 14:02 | 50.03326 | 8.54780 | 338 ft | 26 kts | 249° |
| 2026-05-05 14:02 | 50.03278 | 8.54578 | 335 ft | 13 kts | 250° |
| 2026-05-05 14:03 | 50.03321 | 8.54477 | 338 ft | 13 kts | 343° |
| 2026-05-05 14:03 | 50.03397 | 8.54432 | 339 ft | 10 kts | 340° |
| 2026-05-05 14:03 | 50.03485 | 8.54381 | 345 ft | 19 kts | 339° |
| 2026-05-05 14:03 | 50.03609 | 8.54312 | 344 ft | 14 kts | 341° |
| 2026-05-05 14:04 | 50.03677 | 8.54397 | 347 ft | 19 kts | 70° |
| 2026-05-05 14:04 | 50.03729 | 8.54613 | 350 ft | 24 kts | 69° |
| 2026-05-05 14:04 | 50.03789 | 8.54866 | 350 ft | 24 kts | 69° |
| 2026-05-05 14:04 | 50.03848 | 8.55111 | 352 ft | 24 kts | 70° |
| 2026-05-05 14:05 | 50.03904 | 8.55347 | 352 ft | 23 kts | 69° |
| 2026-05-05 14:05 | 50.03961 | 8.55583 | 354 ft | 24 kts | 70° |
| 2026-05-05 14:05 | 50.04018 | 8.55822 | 353 ft | 23 kts | 70° |
| 2026-05-05 14:05 | 50.04071 | 8.56045 | 359 ft | 19 kts | 69° |
| 2026-05-05 14:06 | 50.04105 | 8.56185 | 355 ft | 3 kts | 70° |
| 2026-05-05 14:06 | 50.04106 | 8.56188 | 357 ft | 0 kts | 70° |
| 2026-05-05 14:07 | 50.04106 | 8.56191 | 357 ft | 2 kts | 70° |
| 2026-05-05 14:07 | 50.04122 | 8.56253 | 356 ft | 7 kts | 64° |
| 2026-05-05 14:07 | 50.04175 | 8.56277 | 354 ft | 10 kts | 342° |
| 2026-05-05 14:07 | 50.04254 | 8.56232 | 360 ft | 14 kts | 340° |
| 2026-05-05 14:08 | 50.04289 | 8.56143 | 357 ft | 11 kts | 267° |
| 2026-05-05 14:08 | 50.04340 | 8.56057 | 356 ft | 11 kts | 338° |
| 2026-05-05 14:08 | 50.04413 | 8.56033 | 360 ft | 12 kts | 15° |
| 2026-05-05 14:08 | 50.04457 | 8.56137 | 361 ft | 12 kts | 70° |
| 2026-05-05 14:09 | 50.04477 | 8.56244 | 358 ft | 7 kts | 106° |
| 2026-05-05 14:09 | 50.04456 | 8.56256 | 358 ft | 4 kts | 162° |
| 2026-05-05 14:09 | 50.04429 | 8.56269 | 361 ft | 4 kts | 162° |
| 2026-05-05 14:09 | 50.04417 | 8.56275 | 358 ft | 1 kts | 162° |
| 2026-05-05 14:10 | 50.04416 | 8.56276 | 358 ft | 0 kts | 162° |